Time;durP1;ratioP1;P1;durP2;ratioP2;P2;SDS_P1;SDS_P2;PMS_P1;PMS_P2;Temp;Humidity;BMP_temperature;BMP_pressure;BME280_temperature;BME280_humidity;BME280_pressure;Samples;Min_cycle;Max_cycle;Signal;HPM_P1;HPM_P2
2023/05/25 00:01:00;;;;;;;10.88;5.20;;;;;;;12.07;100.00;102455.75;5210386;28;20026;-67
2023/05/25 00:03:31;;;;;;;11.27;4.45;;;;;;;12.02;100.00;102449.97;5205939;28;20069;-66
2023/05/25 00:06:04;;;;;;;11.43;5.10;;;;;;;12.03;100.00;102455.13;5209908;28;20033;-66
2023/05/25 00:08:35;;;;;;;12.63;5.50;;;;;;;12.09;100.00;102449.47;5210271;28;20034;-66
2023/05/25 00:11:06;;;;;;;11.13;5.38;;;;;;;12.02;100.00;102449.97;5210358;28;20026;-66
2023/05/25 00:13:38;;;;;;;13.85;6.45;;;;;;;12.10;100.00;102447.69;5209689;28;20046;-66
2023/05/25 00:16:09;;;;;;;14.75;5.80;;;;;;;12.07;100.00;102448.72;5208196;28;20038;-67
2023/05/25 00:18:42;;;;;;;11.52;5.28;;;;;;;12.10;100.00;102451.16;5208301;28;20033;-67
2023/05/25 00:21:14;;;;;;;11.40;5.17;;;;;;;12.05;100.00;102440.09;5208754;28;20022;-66
2023/05/25 00:23:45;;;;;;;14.53;6.20;;;;;;;12.08;100.00;102453.03;5210969;28;20549;-66
2023/05/25 00:26:16;;;;;;;11.85;5.50;;;;;;;12.05;100.00;102458.50;5211354;28;20022;-67
2023/05/25 00:28:48;;;;;;;13.13;5.30;;;;;;;12.01;100.00;102448.25;5211744;28;20025;-66
2023/05/25 00:31:19;;;;;;;11.25;5.38;;;;;;;12.09;100.00;102451.25;5208100;28;20026;-67
2023/05/25 00:33:50;;;;;;;11.20;5.20;;;;;;;12.08;100.00;102450.38;5210548;28;20021;-67
2023/05/25 00:36:23;;;;;;;13.00;5.22;;;;;;;12.07;100.00;102450.50;5209835;28;20421;-67
2023/05/25 00:38:54;;;;;;;9.43;4.87;;;;;;;12.11;100.00;102455.44;5214642;28;20109;-67
2023/05/25 00:41:27;;;;;;;11.88;4.93;;;;;;;12.06;100.00;102467.22;5209409;28;20303;-67
2023/05/25 00:43:58;;;;;;;10.60;5.30;;;;;;;12.08;100.00;102458.28;5213545;28;20030;-67
2023/05/25 00:46:33;;;;;;;9.93;4.90;;;;;;;12.03;100.00;102468.25;5207948;28;20033;-67
2023/05/25 00:49:04;;;;;;;10.95;4.93;;;;;;;11.98;100.00;102459.84;5211822;28;20049;-67
2023/05/25 00:51:35;;;;;;;12.48;5.28;;;;;;;12.04;100.00;102455.94;5213986;28;20079;-67
2023/05/25 00:54:07;;;;;;;11.18;4.55;;;;;;;12.08;100.00;102454.81;5214872;28;20030;-67
2023/05/25 00:56:41;;;;;;;10.15;4.28;;;;;;;12.00;100.00;102449.22;5212637;28;20101;-67
2023/05/25 00:59:20;;;;;;;10.35;4.88;;;;;;;12.10;100.00;102455.56;5214168;28;20490;-67
2023/05/25 01:01:53;;;;;;;11.77;5.10;;;;;;;12.01;100.00;102454.38;5212856;28;20030;-67
2023/05/25 01:04:27;;;;;;;9.52;4.60;;;;;;;12.03;100.00;102462.16;5213340;28;20065;-67
2023/05/25 01:07:00;;;;;;;9.02;4.60;;;;;;;11.95;100.00;102461.81;5212347;28;20030;-67
2023/05/25 01:09:33;;;;;;;9.85;4.97;;;;;;;11.99;100.00;102468.56;5214686;28;20395;-67
2023/05/25 01:12:06;;;;;;;11.98;4.90;;;;;;;11.92;100.00;102468.94;5194576;28;21285;-67
2023/05/25 01:14:41;;;;;;;9.38;4.38;;;;;;;11.90;100.00;102468.22;5213281;28;20060;-67
2023/05/25 01:17:14;;;;;;;8.10;4.20;;;;;;;11.87;100.00;102464.94;5212169;28;20032;-67
2023/05/25 01:19:46;;;;;;;8.80;4.40;;;;;;;11.86;100.00;102464.09;5214291;28;20062;-67
2023/05/25 01:22:26;;;;;;;11.63;4.72;;;;;;;11.96;100.00;102466.13;5210624;28;20396;-67
2023/05/25 01:25:08;;;;;;;10.57;4.18;;;;;;;11.95;100.00;102480.19;5212041;28;20026;-67
2023/05/25 01:27:45;;;;;;;12.82;4.63;;;;;;;11.95;100.00;102480.19;5212683;28;20506;-67
2023/05/25 01:30:18;;;;;;;11.07;4.50;;;;;;;11.85;100.00;102478.16;5212082;28;20034;-66
2023/05/25 01:32:50;;;;;;;8.65;5.00;;;;;;;11.84;100.00;102483.50;5211161;28;20085;-67
2023/05/25 01:35:23;;;;;;;10.98;4.43;;;;;;;11.80;100.00;102479.38;5214689;28;20065;-67
2023/05/25 01:37:54;;;;;;;;;;;;;;;12.67;100.00;102486.81;5213120;28;20025;-67
2023/05/25 01:40:26;;;;;;;9.35;4.82;;;;;;;11.88;100.00;102482.38;5213968;28;20298;-67
2023/05/25 01:42:58;;;;;;;12.15;5.18;;;;;;;11.89;100.00;102481.44;5212918;28;20026;-67
2023/05/25 01:45:31;;;;;;;12.40;4.68;;;;;;;11.84;100.00;102491.38;5214658;28;20064;-67
2023/05/25 01:48:20;;;;;;;9.20;4.40;;;;;;;11.98;100.00;102480.00;5211210;28;20394;-67
2023/05/25 01:51:03;;;;;;;10.13;5.00;;;;;;;11.95;100.00;102482.84;5212647;28;20079;-67
2023/05/25 01:53:39;;;;;;;7.75;4.45;;;;;;;11.82;100.00;102487.97;5213721;28;20037;-67
2023/05/25 01:56:12;;;;;;;9.48;4.63;;;;;;;11.79;100.00;102493.44;5213752;28;20022;-67
2023/05/25 01:58:45;;;;;;;;;;;;;;;12.47;100.00;102490.78;5214349;28;20029;-67
2023/05/25 02:01:18;;;;;;;8.15;4.55;;;;;;;11.65;100.00;102499.56;5212095;28;19921;-67
2023/05/25 02:03:51;;;;;;;9.30;4.88;;;;;;;11.57;100.00;102493.94;5195674;28;20159;-67
2023/05/25 02:06:22;;;;;;;10.30;4.30;;;;;;;11.58;100.00;102490.38;5214333;28;20033;-67
2023/05/25 02:08:53;;;;;;;9.32;4.53;;;;;;;11.43;100.00;102479.06;5214506;28;20645;-67
2023/05/25 02:11:25;;;;;;;8.13;4.78;;;;;;;11.48;100.00;102500.63;5211949;28;20053;-67
2023/05/25 02:13:56;;;;;;;8.27;4.70;;;;;;;11.49;100.00;102497.06;5213936;28;20096;-67
2023/05/25 02:16:28;;;;;;;9.90;4.82;;;;;;;11.46;100.00;102494.63;5214195;28;20487;-67
2023/05/25 02:18:59;;;;;;;9.77;4.57;;;;;;;11.48;100.00;102487.50;5207387;28;20025;-67
2023/05/25 02:21:31;;;;;;;9.70;5.32;;;;;;;11.44;100.00;102484.22;5215285;28;20034;-67
2023/05/25 02:24:02;;;;;;;7.80;4.20;;;;;;;11.39;100.00;102486.28;5212135;28;20037;-67
2023/05/25 02:26:37;;;;;;;9.57;4.78;;;;;;;11.51;100.00;102487.28;5213153;28;20049;-67
2023/05/25 02:29:10;;;;;;;10.15;4.80;;;;;;;11.32;100.00;102487.59;5215280;28;20092;-67
2023/05/25 02:31:41;;;;;;;8.00;4.33;;;;;;;11.35;100.00;102490.03;5212059;28;20026;-67
2023/05/25 02:34:14;;;;;;;8.93;4.68;;;;;;;11.38;100.00;102491.63;5212917;28;20283;-67
2023/05/25 02:36:45;;;;;;;10.50;4.50;;;;;;;11.32;100.00;102484.13;5212420;28;20037;-67
2023/05/25 02:39:16;;;;;;;9.63;4.60;;;;;;;11.27;100.00;102487.03;5214142;28;20868;-67
2023/05/25 02:41:48;;;;;;;10.30;5.05;;;;;;;11.17;100.00;102489.41;5211988;28;20033;-67
2023/05/25 02:44:19;;;;;;;11.88;5.32;;;;;;;11.08;100.00;102500.44;5212908;28;21120;-67
2023/05/25 02:46:50;;;;;;;8.73;4.70;;;;;;;11.10;100.00;102495.09;5211704;28;20494;-67
2023/05/25 02:49:22;;;;;;;8.50;4.25;;;;;;;11.12;100.00;102499.31;5212887;28;20022;-67
2023/05/25 02:51:53;;;;;;;9.27;5.03;;;;;;;11.02;100.00;102497.31;5212594;28;20033;-67
2023/05/25 02:54:24;;;;;;;10.55;4.97;;;;;;;11.14;100.00;102494.00;5212909;28;20022;-67
2023/05/25 02:56:55;;;;;;;11.50;4.60;;;;;;;11.12;100.00;102493.22;5211239;28;20045;-67
2023/05/25 02:59:27;;;;;;;8.93;4.68;;;;;;;11.08;100.00;102494.34;5212841;28;20045;-67
2023/05/25 03:01:58;;;;;;;10.45;5.22;;;;;;;10.97;100.00;102481.88;5212592;28;20040;-67
2023/05/25 03:04:32;;;;;;;8.93;5.18;;;;;;;10.90;100.00;102480.56;5212064;28;20045;-67
2023/05/25 03:07:04;;;;;;;8.73;5.00;;;;;;;10.81;100.00;102487.19;5211557;28;20029;-67
2023/05/25 03:09:35;;;;;;;8.70;5.43;;;;;;;10.86;100.00;102492.16;5214627;28;20454;-67
2023/05/25 03:12:06;;;;;;;10.00;5.60;;;;;;;10.90;100.00;102494.50;5211005;28;20525;-67
2023/05/25 03:14:38;;;;;;;11.43;6.10;;;;;;;10.84;100.00;102492.28;5213318;28;20471;-67
2023/05/25 03:17:09;;;;;;;10.48;6.68;;;;;;;10.83;100.00;102500.22;5212057;28;20077;-65
2023/05/25 03:19:41;;;;;;;11.00;6.40;;;;;;;10.81;100.00;102516.03;5209123;28;20038;-65
2023/05/25 03:22:12;;;;;;;10.05;5.78;;;;;;;10.79;100.00;102510.03;5212677;28;20034;-66
2023/05/25 03:24:43;;;;;;;11.20;6.10;;;;;;;10.74;100.00;102506.84;5212575;28;20113;-66
2023/05/25 03:27:15;;;;;;;10.68;5.75;;;;;;;10.90;100.00;102506.78;5195988;28;20022;-66
2023/05/25 03:29:49;;;;;;;11.77;6.45;;;;;;;10.88;100.00;102508.66;5211509;28;20030;-66
2023/05/25 03:32:21;;;;;;;7.32;5.30;;;;;;;10.75;100.00;102518.19;5213197;28;20028;-66
2023/05/25 03:34:53;;;;;;;14.18;7.20;;;;;;;10.78;100.00;102521.47;5212733;28;20038;-66
2023/05/25 03:37:24;;;;;;;10.68;6.40;;;;;;;10.68;100.00;102526.41;5207016;28;20025;-66
2023/05/25 03:39:55;;;;;;;14.52;6.35;;;;;;;10.70;100.00;102518.44;5213191;28;20080;-66
2023/05/25 03:42:27;;;;;;;11.43;6.25;;;;;;;10.65;100.00;102523.97;5212293;28;20459;-66
2023/05/25 03:44:58;;;;;;;10.23;6.40;;;;;;;10.74;100.00;102533.06;5209361;28;20398;-66
2023/05/25 03:47:30;;;;;;;9.50;6.30;;;;;;;10.71;100.00;102534.06;5210509;28;20025;-66
2023/05/25 03:50:03;;;;;;;10.98;6.28;;;;;;;10.62;100.00;102528.53;5213055;28;20041;-66
2023/05/25 03:52:35;;;;;;;11.90;7.22;;;;;;;10.69;100.00;102532.50;5209725;28;20382;-66
2023/05/25 03:55:06;;;;;;;16.63;8.10;;;;;;;10.64;100.00;102534.53;5210858;28;20022;-66
2023/05/25 03:57:38;;;;;;;11.05;7.43;;;;;;;10.58;100.00;102540.13;5213488;28;20038;-66
2023/05/25 04:00:10;;;;;;;11.75;7.68;;;;;;;10.51;100.00;102539.63;5212705;28;21370;-66
2023/05/25 04:02:41;;;;;;;11.60;7.45;;;;;;;10.56;100.00;102548.06;5211416;28;20034;-66
2023/05/25 04:05:13;;;;;;;13.02;7.78;;;;;;;10.56;100.00;102548.06;5213433;28;20015;-66
2023/05/25 04:07:44;;;;;;;13.32;8.55;;;;;;;10.59;100.00;102544.44;5212628;28;20219;-66
2023/05/25 04:10:16;;;;;;;12.60;8.43;;;;;;;10.55;100.00;102545.56;5206278;28;20050;-66
2023/05/25 04:12:47;;;;;;;11.73;8.13;;;;;;;10.63;100.00;102543.31;5210341;28;20107;-66
2023/05/25 04:15:20;;;;;;;11.00;7.82;;;;;;;10.64;100.00;102547.63;5212383;28;20022;-66
2023/05/25 04:17:51;;;;;;;12.95;8.18;;;;;;;10.62;100.00;102542.50;5210354;28;20018;-66
2023/05/25 04:20:22;;;;;;;10.60;7.53;;;;;;;10.64;100.00;102548.47;5211627;28;20455;-66
2023/05/25 04:22:55;;;;;;;11.88;7.85;;;;;;;10.63;100.00;102544.16;5210759;28;20548;-66
2023/05/25 04:25:26;;;;;;;12.73;8.10;;;;;;;10.67;100.00;102550.91;5213570;28;20483;-66
2023/05/25 04:27:57;;;;;;;14.80;8.00;;;;;;;10.74;100.00;102546.16;5210171;28;20068;-66
2023/05/25 04:30:30;;;;;;;10.50;7.30;;;;;;;10.77;100.00;102545.16;5211637;28;20034;-66
2023/05/25 04:33:01;;;;;;;13.35;7.43;;;;;;;10.89;100.00;102553.13;5211032;28;20137;-66
2023/05/25 04:35:32;;;;;;;13.77;7.53;;;;;;;10.85;100.00;102551.63;5210924;28;20461;-66
2023/05/25 04:38:05;;;;;;;14.10;7.05;;;;;;;10.91;100.00;102567.00;5209425;28;20084;-67
2023/05/25 04:40:40;;;;;;;12.90;7.60;;;;;;;10.95;100.00;102554.56;5212805;28;20037;-67
2023/05/25 04:43:12;;;;;;;12.60;7.13;;;;;;;10.93;100.00;102554.63;5204186;28;20033;-67
2023/05/25 04:45:44;;;;;;;14.70;6.78;;;;;;;10.98;100.00;102554.38;5212886;28;20030;-67
2023/05/25 04:48:16;;;;;;;11.95;6.10;;;;;;;11.00;100.00;102551.66;5212594;28;20030;-67
2023/05/25 04:50:47;;;;;;;12.20;6.90;;;;;;;11.05;100.00;102557.47;5204636;28;20313;-67
2023/05/25 04:53:19;;;;;;;10.30;7.07;;;;;;;11.11;100.00;102563.22;5211504;28;20037;-67
2023/05/25 04:55:50;;;;;;;14.20;7.43;;;;;;;11.11;100.00;102559.75;5208223;28;20025;-67
2023/05/25 04:58:21;;;;;;;14.90;7.18;;;;;;;11.20;100.00;102556.56;5207660;28;20370;-67
2023/05/25 05:00:53;;;;;;;10.05;6.47;;;;;;;11.26;100.00;102568.47;5206662;28;20030;-67
2023/05/25 05:03:24;;;;;;;10.85;7.20;;;;;;;11.28;100.00;102567.44;5212127;28;20100;-67
2023/05/25 05:05:55;;;;;;;12.55;6.50;;;;;;;11.30;100.00;102562.09;5211125;28;20033;-66
2023/05/25 05:08:27;;;;;;;14.73;7.05;;;;;;;11.38;100.00;102571.19;5209457;28;20030;-67
2023/05/25 05:10:58;;;;;;;16.85;7.38;;;;;;;11.49;100.00;102574.97;5206651;28;20164;-66
2023/05/25 05:13:29;;;;;;;11.52;7.13;;;;;;;11.46;100.00;102575.97;5211964;28;20050;-66
2023/05/25 05:16:01;;;;;;;10.68;6.00;;;;;;;11.51;100.00;102576.53;5208145;28;20924;-66
2023/05/25 05:18:32;;;;;;;12.13;6.55;;;;;;;11.50;100.00;102574.84;5211064;28;20408;-67
2023/05/25 05:21:03;;;;;;;13.00;6.50;;;;;;;11.55;100.00;102571.94;5186844;28;20084;-66
2023/05/25 05:23:35;;;;;;;11.65;6.55;;;;;;;11.62;100.00;102583.75;5210361;28;20117;-66
2023/05/25 05:26:09;;;;;;;13.75;6.68;;;;;;;11.68;100.00;102580.75;5212822;28;20505;-67
2023/05/25 05:28:41;;;;;;;11.00;6.82;;;;;;;11.76;100.00;102583.75;5215166;28;20026;-67
2023/05/25 05:31:12;;;;;;;8.80;6.18;;;;;;;11.83;100.00;102586.84;5208453;28;20497;-66
2023/05/25 05:33:44;;;;;;;11.00;6.30;;;;;;;11.95;100.00;102583.47;5214779;28;20037;-67
2023/05/25 05:36:15;;;;;;;13.32;5.93;;;;;;;12.02;100.00;102591.81;5214547;28;20076;-67
2023/05/25 05:38:46;;;;;;;13.98;6.45;;;;;;;12.08;100.00;102601.94;5212741;28;20022;-67
2023/05/25 05:41:17;;;;;;;10.77;6.10;;;;;;;12.12;100.00;102596.41;5209868;28;20034;-66
2023/05/25 05:43:49;;;;;;;10.43;6.07;;;;;;;12.20;100.00;102603.81;5210012;28;20775;-66
2023/05/25 05:46:20;;;;;;;12.30;6.20;;;;;;;12.26;100.00;102594.66;5209664;28;20079;-66
2023/05/25 05:48:51;;;;;;;13.48;6.45;;;;;;;12.30;100.00;102609.28;5211797;28;20040;-66
2023/05/25 05:51:23;;;;;;;10.50;6.10;;;;;;;12.38;100.00;102607.00;5214678;28;20018;-66
2023/05/25 05:53:54;;;;;;;13.88;5.68;;;;;;;12.49;100.00;102617.69;5212849;28;20045;-66
2023/05/25 05:56:26;;;;;;;12.20;6.07;;;;;;;12.57;100.00;102622.44;5212434;28;20032;-66
2023/05/25 05:58:58;;;;;;;11.23;5.53;;;;;;;12.64;100.00;102623.72;5214412;28;20495;-68
2023/05/25 06:01:29;;;;;;;13.48;5.05;;;;;;;12.77;100.00;102632.53;5211963;28;20049;-67
2023/05/25 06:04:00;;;;;;;10.82;5.10;;;;;;;12.85;100.00;102627.59;5211539;28;20386;-67
2023/05/25 06:06:33;;;;;;;10.88;4.57;;;;;;;13.00;100.00;102623.09;5215102;28;20419;-66
2023/05/25 06:09:05;;;;;;;12.13;5.30;;;;;;;13.14;100.00;102630.06;5210951;28;20076;-67
2023/05/25 06:11:38;;;;;;;6.68;4.50;;;;;;;13.24;100.00;102630.31;5208834;28;20053;-67
2023/05/25 06:14:10;;;;;;;11.88;5.10;;;;;;;13.38;100.00;102625.81;5213350;28;20046;-66
2023/05/25 06:16:42;;;;;;;10.80;5.25;;;;;;;13.45;100.00;102630.63;5209828;28;20026;-67
2023/05/25 06:19:13;;;;;;;12.27;5.00;;;;;;;13.59;100.00;102634.00;5212607;28;20033;-67
2023/05/25 06:21:45;;;;;;;13.13;4.97;;;;;;;13.74;100.00;102631.28;5212648;28;20080;-67
2023/05/25 06:24:16;;;;;;;11.43;5.25;;;;;;;13.72;100.00;102631.38;5213812;28;20049;-67
2023/05/25 06:26:47;;;;;;;11.30;5.22;;;;;;;13.94;100.00;102637.78;5207166;28;20049;-67
2023/05/25 06:29:18;;;;;;;10.88;5.30;;;;;;;14.05;100.00;102638.72;5212681;28;20746;-67
2023/05/25 06:31:50;;;;;;;10.85;4.72;;;;;;;14.14;100.00;102639.00;5214246;28;20049;-66
2023/05/25 06:34:21;;;;;;;9.60;3.78;;;;;;;14.27;100.00;102640.66;5210943;28;20026;-66
2023/05/25 06:36:52;;;;;;;8.65;4.88;;;;;;;14.34;100.00;102655.06;5214180;28;20029;-66
2023/05/25 06:39:23;;;;;;;9.52;4.97;;;;;;;14.45;100.00;102656.09;5213182;28;20060;-66
2023/05/25 06:41:55;;;;;;;16.67;5.10;;;;;;;14.62;100.00;102653.09;5212691;28;20614;-66
2023/05/25 06:44:26;;;;;;;12.18;4.97;;;;;;;14.62;100.00;102654.91;5205795;28;20061;-66
2023/05/25 06:46:57;;;;;;;7.90;4.18;;;;;;;14.74;100.00;102659.28;5214619;28;20108;-66
2023/05/25 06:49:30;;;;;;;11.73;4.87;;;;;;;14.88;100.00;102658.25;5211886;28;20064;-67
2023/05/25 06:52:01;;;;;;;10.57;4.97;;;;;;;15.04;97.27;102662.28;5211220;28;20033;-66
2023/05/25 06:54:32;;;;;;;11.20;5.03;;;;;;;14.96;95.92;102663.81;5210223;28;20033;-67
2023/05/25 06:57:03;;;;;;;8.52;4.10;;;;;;;14.94;95.94;102658.66;5212328;28;20022;-67
2023/05/25 06:59:35;;;;;;;11.48;4.72;;;;;;;15.09;93.43;102656.66;5212395;28;20036;-67
2023/05/25 07:02:06;;;;;;;11.57;5.07;;;;;;;15.22;96.06;102662.69;5207930;28;20049;-67
2023/05/25 07:04:37;;;;;;;8.55;4.90;;;;;;;15.04;92.79;102664.09;5205602;28;20180;-67
2023/05/25 07:07:10;;;;;;;9.80;4.18;;;;;;;15.06;90.78;102665.66;5211515;28;20029;-67
2023/05/25 07:09:41;;;;;;;9.13;4.18;;;;;;;15.12;90.74;102667.00;5210755;28;20029;-67
2023/05/25 07:12:13;;;;;;;9.38;4.10;;;;;;;15.22;89.27;102670.59;5210215;28;20053;-67
2023/05/25 07:14:47;;;;;;;9.13;4.70;;;;;;;15.39;89.25;102671.16;5208661;28;20033;-67
2023/05/25 07:17:18;;;;;;;9.85;4.93;;;;;;;15.57;88.99;102670.59;5201801;28;20046;-67
2023/05/25 07:19:49;;;;;;;10.18;4.38;;;;;;;15.77;86.54;102669.06;5201876;28;20141;-67
2023/05/25 07:22:22;;;;;;;11.32;4.45;;;;;;;16.05;83.83;102664.25;5202508;28;20056;-68
2023/05/25 07:24:53;;;;;;;8.60;4.20;;;;;;;16.30;81.15;102666.63;5204210;28;20026;-68
2023/05/25 07:27:25;;;;;;;9.00;4.60;;;;;;;16.49;80.16;102673.09;5212854;28;20032;-67
2023/05/25 07:29:56;;;;;;;9.98;3.95;;;;;;;16.62;78.31;102673.75;5199495;28;20514;-67
2023/05/25 07:32:27;;;;;;;9.15;4.43;;;;;;;16.58;76.33;102677.63;5210529;28;20041;-68
2023/05/25 07:34:58;;;;;;;7.43;3.90;;;;;;;16.75;77.28;102671.84;5202191;28;20099;-68
2023/05/25 07:37:30;;;;;;;8.57;4.28;;;;;;;16.85;73.67;102681.66;5212380;28;20029;-68
2023/05/25 07:40:01;;;;;;;8.60;4.60;;;;;;;17.00;74.16;102683.88;5212582;28;20487;-68
2023/05/25 07:42:33;;;;;;;8.68;4.78;;;;;;;16.96;71.39;102682.44;5208269;28;20388;-67
2023/05/25 07:45:05;;;;;;;9.38;4.90;;;;;;;17.20;75.61;102679.56;5210133;28;20026;-68
2023/05/25 07:47:36;;;;;;;9.45;4.50;;;;;;;17.26;71.02;102680.84;5207886;28;20037;-68
2023/05/25 07:50:08;;;;;;;9.00;4.43;;;;;;;17.18;68.07;102681.50;5210941;28;20033;-68
2023/05/25 07:52:40;;;;;;;9.20;4.00;;;;;;;17.33;68.48;102679.38;5211882;28;20040;-68
2023/05/25 07:55:11;;;;;;;7.65;3.88;;;;;;;17.23;66.43;102679.28;5208026;28;20491;-68
2023/05/25 07:57:42;;;;;;;8.05;4.10;;;;;;;17.44;66.82;102686.41;5210201;28;20022;-68
2023/05/25 08:00:14;;;;;;;8.75;4.13;;;;;;;17.41;64.92;102684.84;5207994;28;20026;-68
2023/05/25 08:02:45;;;;;;;6.90;3.97;;;;;;;17.62;64.44;102681.38;5209012;28;20125;-67
2023/05/25 08:05:17;;;;;;;9.05;4.10;;;;;;;17.75;64.04;102679.34;5188941;28;20069;-67
2023/05/25 08:07:48;;;;;;;9.45;4.28;;;;;;;17.94;64.99;102687.38;5209183;28;20056;-66
2023/05/25 08:10:19;;;;;;;11.63;4.10;;;;;;;17.99;62.98;102682.53;5211326;28;20021;-67
2023/05/25 08:12:51;;;;;;;8.60;4.05;;;;;;;18.02;62.45;102689.38;5212976;28;20056;-66
2023/05/25 08:15:22;;;;;;;9.90;4.25;;;;;;;18.14;63.41;102690.94;5208742;28;20026;-66
2023/05/25 08:17:55;;;;;;;10.25;4.30;;;;;;;18.33;62.11;102694.63;5210344;28;20027;-66
2023/05/25 08:20:26;;;;;;;9.77;4.32;;;;;;;18.44;61.19;102691.88;5210123;28;20060;-66
2023/05/25 08:22:58;;;;;;;8.73;3.80;;;;;;;18.44;58.71;102697.19;5208134;28;20113;-66
2023/05/25 08:25:29;;;;;;;10.25;4.28;;;;;;;18.36;58.20;102702.31;5212449;28;20037;-66
2023/05/25 08:28:00;;;;;;;10.07;4.72;;;;;;;18.37;58.24;102693.38;5206561;28;20032;-67
2023/05/25 08:30:32;;;;;;;8.30;3.60;;;;;;;18.48;57.44;102690.63;5207416;28;20109;-67
2023/05/25 08:33:04;;;;;;;8.52;3.95;;;;;;;18.61;55.92;102699.19;5202518;28;20026;-67
2023/05/25 08:35:39;;;;;;;8.43;3.95;;;;;;;18.92;57.46;102691.13;5208280;28;20154;-67
2023/05/25 08:38:10;;;;;;;7.40;3.67;;;;;;;18.95;55.46;102690.84;5200899;28;20025;-68
2023/05/25 08:40:43;;;;;;;9.05;3.75;;;;;;;18.99;56.92;102707.34;5205590;28;20607;-67
2023/05/25 08:43:15;;;;;;;7.28;4.00;;;;;;;18.83;54.98;102697.28;5210834;28;20040;-67
2023/05/25 08:45:46;;;;;;;8.85;3.95;;;;;;;18.85;54.81;102706.75;5203906;28;20034;-67
2023/05/25 08:48:20;;;;;;;11.52;3.63;;;;;;;19.06;54.75;102705.81;5207950;28;20467;-68
2023/05/25 08:50:52;;;;;;;9.73;3.95;;;;;;;19.08;53.91;102704.66;5204592;28;20589;-67
2023/05/25 08:53:25;;;;;;;9.70;3.55;;;;;;;19.11;52.83;102704.41;5201094;28;20055;-67
2023/05/25 08:55:58;;;;;;;14.52;3.75;;;;;;;19.02;53.16;102709.72;5198116;28;20029;-67
2023/05/25 08:58:39;;;;;;;11.05;3.75;;;;;;;19.07;55.34;102715.44;5208615;28;20033;-67
2023/05/25 09:01:17;;;;;;;8.63;3.25;;;;;;;19.02;54.44;102710.56;5205341;28;20887;-67
2023/05/25 09:03:49;;;;;;;8.50;3.65;;;;;;;19.07;54.68;102721.59;5207636;28;20038;-67
2023/05/25 09:06:22;;;;;;;7.43;3.58;;;;;;;19.07;53.09;102716.28;5200304;28;20080;-67
2023/05/25 09:08:54;;;;;;;9.07;3.75;;;;;;;18.95;52.92;102717.41;5203852;28;20132;-67
2023/05/25 09:11:27;;;;;;;9.23;4.00;;;;;;;18.95;52.27;102717.41;5196775;28;20029;-67
2023/05/25 09:13:58;;;;;;;;;;;;;;;19.78;53.73;102707.09;5211385;28;20047;-67
2023/05/25 09:16:32;;;;;;;9.07;3.60;;;;;;;18.92;53.22;102718.50;5204713;28;19917;-67
2023/05/25 09:19:03;;;;;;;8.57;3.35;;;;;;;19.05;54.13;102720.03;5193922;28;20280;-67
2023/05/25 09:21:35;;;;;;;8.05;3.63;;;;;;;18.91;52.97;102713.34;5212685;28;20529;-67
2023/05/25 09:24:07;;;;;;;7.75;3.60;;;;;;;18.77;53.72;102713.75;5207068;28;20029;-67
2023/05/25 09:26:38;;;;;;;10.05;3.65;;;;;;;18.93;54.13;102714.03;5198920;28;20030;-67
2023/05/25 09:29:12;;;;;;;10.27;4.53;;;;;;;18.98;54.39;102711.81;5204554;28;20119;-67
2023/05/25 09:31:44;;;;;;;10.60;4.28;;;;;;;18.83;55.99;102707.91;5215256;28;20471;-67
2023/05/25 09:34:15;;;;;;;8.48;3.60;;;;;;;18.74;56.11;102720.16;5212973;28;20037;-67
2023/05/25 09:36:46;;;;;;;9.68;3.40;;;;;;;18.74;55.14;102725.47;5216093;28;20072;-67
2023/05/25 09:39:17;;;;;;;9.00;3.63;;;;;;;18.59;54.04;102727.66;5211418;28;20025;-67
2023/05/25 09:41:49;;;;;;;8.40;3.35;;;;;;;18.68;55.58;102723.38;5213997;28;20144;-67
2023/05/25 09:44:20;;;;;;;9.75;4.20;;;;;;;18.68;56.12;102729.50;5208237;28;20053;-67
2023/05/25 09:46:52;;;;;;;10.98;3.83;;;;;;;18.63;54.99;102714.94;5216536;28;20109;-67
2023/05/25 09:49:23;;;;;;;9.88;3.13;;;;;;;18.89;55.50;102718.78;5213670;28;20030;-67
2023/05/25 09:51:55;;;;;;;10.63;3.17;;;;;;;18.88;55.09;102724.25;5214564;28;20514;-67
2023/05/25 09:54:26;;;;;;;7.18;2.63;;;;;;;18.66;51.66;102727.97;5215079;28;20065;-67
2023/05/25 09:57:01;;;;;;;9.03;3.10;;;;;;;18.46;52.45;102722.63;5210500;28;20502;-67
2023/05/25 09:59:33;;;;;;;10.70;3.60;;;;;;;18.46;54.44;102732.41;5209296;28;20042;-67
2023/05/25 10:02:05;;;;;;;10.18;3.70;;;;;;;18.68;53.94;102737.47;5203842;28;20037;-67
2023/05/25 10:04:36;;;;;;;10.27;3.83;;;;;;;18.69;54.21;102739.16;5206759;28;20065;-67
2023/05/25 10:07:08;;;;;;;11.67;3.43;;;;;;;18.77;55.69;102727.88;5203001;28;20137;-67
2023/05/25 10:09:40;;;;;;;13.30;4.15;;;;;;;18.81;54.23;102726.63;5212336;28;20037;-67
2023/05/25 10:12:17;;;;;;;6.28;3.50;;;;;;;19.06;56.58;102733.22;5209609;28;20978;-67
2023/05/25 10:14:49;;;;;;;9.70;4.25;;;;;;;18.88;55.37;102733.06;5211345;28;20030;-67
2023/05/25 10:17:23;;;;;;;12.15;4.00;;;;;;;18.95;54.68;102731.53;5213166;28;20600;-67
2023/05/25 10:19:58;;;;;;;10.15;4.20;;;;;;;19.06;53.75;102733.22;5212129;28;20364;-67
2023/05/25 10:23:07;;;;;;;9.52;3.90;;;;;;;19.42;53.95;102733.44;5212004;28;20065;-67
2023/05/25 10:25:50;;;;;;;13.18;3.80;;;;;;;19.19;52.52;102731.09;5209406;28;20305;-67
2023/05/25 10:28:28;;;;;;;7.40;3.22;;;;;;;19.29;52.61;102738.25;5207113;28;20088;-67
2023/05/25 10:31:00;;;;;;;9.07;3.22;;;;;;;19.29;51.73;102735.59;5201230;28;20037;-68
2023/05/25 10:33:32;;;;;;;9.50;3.47;;;;;;;19.17;51.79;102726.91;5202626;28;20033;-68
2023/05/25 10:36:05;;;;;;;10.37;3.63;;;;;;;19.30;52.64;102737.25;5211113;28;20041;-67
2023/05/25 10:38:39;;;;;;;10.93;3.65;;;;;;;19.43;52.02;102735.97;5212439;28;20029;-67
2023/05/25 10:41:10;;;;;;;8.10;3.42;;;;;;;19.48;51.12;102737.38;5211466;28;20602;-67
2023/05/25 10:43:42;;;;;;;10.00;3.58;;;;;;;19.66;51.04;102739.19;5213381;28;20121;-68
2023/05/25 10:46:14;;;;;;;8.90;3.53;;;;;;;19.44;49.07;102737.66;5210681;28;20034;-68
2023/05/25 10:48:47;;;;;;;11.07;3.83;;;;;;;19.33;48.68;102729.84;5208116;28;20029;-68
2023/05/25 10:51:19;;;;;;;6.70;2.83;;;;;;;19.13;47.85;102736.13;5207849;28;20383;-68
2023/05/25 10:54:00;;;;;;;9.50;3.20;;;;;;;19.64;49.11;102732.31;5213196;28;20066;-67
2023/05/25 10:56:32;;;;;;;10.25;2.88;;;;;;;19.52;47.87;102728.97;5212475;28;20399;-68
2023/05/25 10:59:03;;;;;;;8.20;3.40;;;;;;;19.85;48.45;102727.66;5212314;28;20026;-68
2023/05/25 11:01:49;;;;;;;10.80;3.33;;;;;;;20.15;47.44;102729.22;5211231;28;20065;-67
2023/05/25 11:04:20;;;;;;;6.65;2.95;;;;;;;19.82;47.07;102727.09;5212652;28;20033;-68
2023/05/25 11:06:51;;;;;;;6.78;3.10;;;;;;;19.75;47.13;102729.50;5211181;28;20029;-68
2023/05/25 11:09:27;;;;;;;9.10;2.87;;;;;;;19.77;47.52;102730.19;5213704;28;20135;-67
2023/05/25 11:12:00;;;;;;;8.48;3.50;;;;;;;19.62;47.07;102726.31;5212475;28;20323;-68
2023/05/25 11:14:32;;;;;;;;;;;;;;;20.68;46.51;102716.16;5212140;28;20026;-67
2023/05/25 11:17:12;;;;;;;7.60;3.17;;;;;;;20.42;46.09;102730.19;5211475;28;19971;-68
2023/05/25 11:19:47;;;;;;;9.02;3.53;;;;;;;20.75;45.90;102725.22;5209416;28;20060;-68
2023/05/25 11:22:22;;;;;;;10.48;3.60;;;;;;;20.79;44.35;102711.44;5211636;28;20029;-68
2023/05/25 11:24:56;;;;;;;6.25;3.00;;;;;;;20.59;45.12;102724.06;5210290;28;20026;-67
2023/05/25 11:27:29;;;;;;;9.02;3.58;;;;;;;20.46;44.18;102726.25;5211564;28;20030;-67
2023/05/25 11:30:00;;;;;;;;;;;;;;;21.26;45.13;102718.38;5211816;28;20550;-67
2023/05/25 11:32:32;;;;;;;8.07;3.20;;;;;;;20.57;46.29;102719.88;5213077;28;19992;-68
2023/05/25 11:35:07;;;;;;;9.33;3.83;;;;;;;20.43;44.68;102713.22;5209761;28;20029;-67
2023/05/25 11:37:40;;;;;;;9.50;3.88;;;;;;;20.25;45.58;102715.00;5211411;28;20022;-67
2023/05/25 11:40:11;;;;;;;6.25;3.13;;;;;;;20.51;45.25;102708.03;5206629;28;20033;-68